sensor_id;sensor_type;location;lat;lon;timestamp;pressure;altitude;pressure_sealevel;temperature;humidity
74722;BME280;63470;49.826;6.740;2023-02-22T00:02:17;100190.17;;;0.69;64.08
74722;BME280;63470;49.826;6.740;2023-02-22T00:04:27;100192.50;;;0.69;63.97
74722;BME280;63470;49.826;6.740;2023-02-22T00:07:01;100190.61;;;0.67;63.97
74722;BME280;63470;49.826;6.740;2023-02-22T00:09:30;100184.19;;;0.64;64.01
74722;BME280;63470;49.826;6.740;2023-02-22T00:11:58;100187.36;;;0.61;64.04
74722;BME280;63470;49.826;6.740;2023-02-22T00:14:28;100185.12;;;0.59;64.10
74722;BME280;63470;49.826;6.740;2023-02-22T00:16:59;100188.38;;;0.62;64.06
74722;BME280;63470;49.826;6.740;2023-02-22T00:19:41;100189.18;;;0.62;63.93
74722;BME280;63470;49.826;6.740;2023-02-22T00:22:00;100188.34;;;0.54;64.00
74722;BME280;63470;49.826;6.740;2023-02-22T00:24:31;100187.67;;;0.52;64.10
74722;BME280;63470;49.826;6.740;2023-02-22T00:27:03;100186.53;;;0.52;64.06
74722;BME280;63470;49.826;6.740;2023-02-22T00:29:35;100185.72;;;0.48;64.14
74722;BME280;63470;49.826;6.740;2023-02-22T00:32:02;100183.19;;;0.44;64.17
74722;BME280;63470;49.826;6.740;2023-02-22T00:34:33;100181.28;;;0.40;64.15
74722;BME280;63470;49.826;6.740;2023-02-22T00:37:03;100178.70;;;0.34;64.16
74722;BME280;63470;49.826;6.740;2023-02-22T00:39:34;100174.62;;;0.27;64.29
74722;BME280;63470;49.826;6.740;2023-02-22T00:42:07;100176.22;;;0.25;64.36
74722;BME280;63470;49.826;6.740;2023-02-22T00:44:35;100172.83;;;0.26;64.31
74722;BME280;63470;49.826;6.740;2023-02-22T00:47:05;100167.38;;;0.28;64.18
74722;BME280;63470;49.826;6.740;2023-02-22T00:49:36;100168.02;;;0.29;64.06
74722;BME280;63470;49.826;6.740;2023-02-22T00:52:07;100170.17;;;0.33;63.97
74722;BME280;63470;49.826;6.740;2023-02-22T00:54:36;100166.28;;;0.36;63.75
74722;BME280;63470;49.826;6.740;2023-02-22T00:57:07;100163.05;;;0.38;63.67
74722;BME280;63470;49.826;6.740;2023-02-22T00:59:38;100164.00;;;0.40;63.67
74722;BME280;63470;49.826;6.740;2023-02-22T01:02:09;100163.36;;;0.44;63.61
74722;BME280;63470;49.826;6.740;2023-02-22T01:04:43;100165.34;;;0.45;63.58
74722;BME280;63470;49.826;6.740;2023-02-22T01:07:09;100162.69;;;0.42;63.61
74722;BME280;63470;49.826;6.740;2023-02-22T01:09:41;100162.66;;;0.35;63.72
74722;BME280;63470;49.826;6.740;2023-02-22T01:12:10;100161.70;;;0.32;63.86
74722;BME280;63470;49.826;6.740;2023-02-22T01:14:41;100157.09;;;0.29;63.88
74722;BME280;63470;49.826;6.740;2023-02-22T01:17:11;100157.77;;;0.27;63.89
74722;BME280;63470;49.826;6.740;2023-02-22T01:19:42;100156.26;;;0.25;63.95
74722;BME280;63470;49.826;6.740;2023-02-22T01:22:12;100152.53;;;0.22;64.00
74722;BME280;63470;49.826;6.740;2023-02-22T01:24:43;100152.12;;;0.19;64.04
74722;BME280;63470;49.826;6.740;2023-02-22T01:27:16;100150.61;;;0.20;64.05
74722;BME280;63470;49.826;6.740;2023-02-22T01:29:44;100154.48;;;0.18;63.98
74722;BME280;63470;49.826;6.740;2023-02-22T01:32:14;100150.25;;;0.19;63.98
74722;BME280;63470;49.826;6.740;2023-02-22T01:34:46;100154.08;;;0.19;63.93
74722;BME280;63470;49.826;6.740;2023-02-22T01:37:15;100149.16;;;0.17;63.94
74722;BME280;63470;49.826;6.740;2023-02-22T01:39:47;100149.93;;;0.12;64.06
74722;BME280;63470;49.826;6.740;2023-02-22T01:42:16;100151.58;;;0.12;64.12
74722;BME280;63470;49.826;6.740;2023-02-22T01:47:22;100151.02;;;0.13;64.15
74722;BME280;63470;49.826;6.740;2023-02-22T01:49:49;100146.45;;;0.12;64.10
74722;BME280;63470;49.826;6.740;2023-02-22T01:52:20;100145.27;;;0.10;64.13
74722;BME280;63470;49.826;6.740;2023-02-22T01:54:53;100147.12;;;0.07;64.18
74722;BME280;63470;49.826;6.740;2023-02-22T01:57:23;100142.69;;;0.04;64.26
74722;BME280;63470;49.826;6.740;2023-02-22T01:59:52;100140.67;;;0.01;64.34
74722;BME280;63470;49.826;6.740;2023-02-22T02:02:22;100137.31;;;0.00;64.39
74722;BME280;63470;49.826;6.740;2023-02-22T02:04:52;100138.05;;;0.00;64.36
74722;BME280;63470;49.826;6.740;2023-02-22T02:07:21;100135.66;;;-0.02;64.37
74722;BME280;63470;49.826;6.740;2023-02-22T02:09:56;100139.32;;;0.02;64.32
74722;BME280;63470;49.826;6.740;2023-02-22T02:12:31;100135.97;;;0.04;64.23
74722;BME280;63470;49.826;6.740;2023-02-22T02:17:22;100135.95;;;0.05;64.20
74722;BME280;63470;49.826;6.740;2023-02-22T02:20:16;100133.40;;;0.06;64.19
74722;BME280;63470;49.826;6.740;2023-02-22T02:25:35;100131.34;;;0.21;63.85
74722;BME280;63470;49.826;6.740;2023-02-22T02:27:27;100125.20;;;0.26;63.68
74722;BME280;63470;49.826;6.740;2023-02-22T02:30:24;100127.72;;;0.32;63.59
74722;BME280;63470;49.826;6.740;2023-02-22T02:32:42;100125.30;;;0.37;63.55
74722;BME280;63470;49.826;6.740;2023-02-22T02:35:11;100125.75;;;0.43;63.56
74722;BME280;63470;49.826;6.740;2023-02-22T02:42:33;100122.62;;;0.66;63.44
74722;BME280;63470;49.826;6.740;2023-02-22T02:45:04;100120.98;;;0.68;63.51
74722;BME280;63470;49.826;6.740;2023-02-22T02:47:33;100116.04;;;0.69;63.59
74722;BME280;63470;49.826;6.740;2023-02-22T02:50:19;100115.89;;;0.74;63.55
74722;BME280;63470;49.826;6.740;2023-02-22T02:52:33;100114.50;;;0.77;63.47
74722;BME280;63470;49.826;6.740;2023-02-22T02:55:04;100110.61;;;0.80;63.39
74722;BME280;63470;49.826;6.740;2023-02-22T02:57:33;100107.95;;;0.82;63.38
74722;BME280;63470;49.826;6.740;2023-02-22T03:00:26;100107.95;;;0.82;63.38
74722;BME280;63470;49.826;6.740;2023-02-22T03:02:49;100102.21;;;0.79;63.40
74722;BME280;63470;49.826;6.740;2023-02-22T03:08:02;100094.83;;;0.72;63.49
74722;BME280;63470;49.826;6.740;2023-02-22T03:10:35;100098.16;;;0.69;63.58
74722;BME280;63470;49.826;6.740;2023-02-22T03:12:49;100092.92;;;0.67;63.66
74722;BME280;63470;49.826;6.740;2023-02-22T03:15:25;100094.81;;;0.64;63.75
74722;BME280;63470;49.826;6.740;2023-02-22T03:17:55;100092.05;;;0.61;63.83
74722;BME280;63470;49.826;6.740;2023-02-22T03:20:20;100096.15;;;0.58;63.90
74722;BME280;63470;49.826;6.740;2023-02-22T03:22:39;100088.19;;;0.58;63.94
74722;BME280;63470;49.826;6.740;2023-02-22T03:25:23;100086.72;;;0.57;63.94
74722;BME280;63470;49.826;6.740;2023-02-22T03:27:46;100084.73;;;0.56;63.99
74722;BME280;63470;49.826;6.740;2023-02-22T03:30:15;100082.42;;;0.54;64.05
74722;BME280;63470;49.826;6.740;2023-02-22T03:32:43;100076.99;;;0.54;64.06
74722;BME280;63470;49.826;6.740;2023-02-22T03:35:11;100079.42;;;0.55;64.05
74722;BME280;63470;49.826;6.740;2023-02-22T03:37:41;100077.44;;;0.57;64.04
74722;BME280;63470;49.826;6.740;2023-02-22T03:40:18;100079.56;;;0.61;63.99
74722;BME280;63470;49.826;6.740;2023-02-22T03:42:48;100073.19;;;0.66;63.81
74722;BME280;63470;49.826;6.740;2023-02-22T03:45:15;100075.12;;;0.65;63.71
74722;BME280;63470;49.826;6.740;2023-02-22T03:47:45;100072.06;;;0.63;63.70
74722;BME280;63470;49.826;6.740;2023-02-22T03:50:18;100069.08;;;0.60;63.76
74722;BME280;63470;49.826;6.740;2023-02-22T03:52:44;100069.14;;;0.55;63.85
74722;BME280;63470;49.826;6.740;2023-02-22T03:55:13;100069.42;;;0.53;63.91
74722;BME280;63470;49.826;6.740;2023-02-22T03:57:45;100066.36;;;0.51;63.94
74722;BME280;63470;49.826;6.740;2023-02-22T04:00:18;100065.17;;;0.52;63.92
74722;BME280;63470;49.826;6.740;2023-02-22T04:02:43;100066.66;;;0.51;63.91
74722;BME280;63470;49.826;6.740;2023-02-22T04:05:21;100065.55;;;0.51;63.82
74722;BME280;63470;49.826;6.740;2023-02-22T04:07:45;100067.14;;;0.52;63.78
74722;BME280;63470;49.826;6.740;2023-02-22T04:10:16;100064.90;;;0.51;63.79
74722;BME280;63470;49.826;6.740;2023-02-22T04:12:46;100066.43;;;0.51;63.84
74722;BME280;63470;49.826;6.740;2023-02-22T04:15:20;100064.16;;;0.51;63.85
74722;BME280;63470;49.826;6.740;2023-02-22T04:17:48;100062.28;;;0.50;63.87
74722;BME280;63470;49.826;6.740;2023-02-22T04:20:19;100057.16;;;0.47;63.94
74722;BME280;63470;49.826;6.740;2023-02-22T04:22:48;100059.59;;;0.47;63.96
74722;BME280;63470;49.826;6.740;2023-02-22T04:25:18;100059.45;;;0.47;63.92
74722;BME280;63470;49.826;6.740;2023-02-22T04:27:52;100056.95;;;0.44;63.92
74722;BME280;63470;49.826;6.740;2023-02-22T04:30:20;100055.45;;;0.41;63.88
74722;BME280;63470;49.826;6.740;2023-02-22T04:32:49;100053.74;;;0.38;63.86
74722;BME280;63470;49.826;6.740;2023-02-22T04:35:20;100055.31;;;0.35;63.91
74722;BME280;63470;49.826;6.740;2023-02-22T04:37:51;100052.30;;;0.35;63.86
74722;BME280;63470;49.826;6.740;2023-02-22T04:40:21;100054.44;;;0.33;63.87
74722;BME280;63470;49.826;6.740;2023-02-22T04:42:52;100047.79;;;0.29;63.92
74722;BME280;63470;49.826;6.740;2023-02-22T04:45:22;100045.83;;;0.28;63.93
74722;BME280;63470;49.826;6.740;2023-02-22T04:47:53;100046.64;;;0.28;63.95
74722;BME280;63470;49.826;6.740;2023-02-22T04:50:34;100043.50;;;0.27;63.96
74722;BME280;63470;49.826;6.740;2023-02-22T04:52:54;100048.08;;;0.24;63.94
74722;BME280;63470;49.826;6.740;2023-02-22T04:55:25;100050.44;;;0.21;63.96
74722;BME280;63470;49.826;6.740;2023-02-22T04:57:55;100045.12;;;0.15;64.02
74722;BME280;63470;49.826;6.740;2023-02-22T05:00:27;100049.56;;;0.11;64.06
74722;BME280;63470;49.826;6.740;2023-02-22T05:02:56;100049.91;;;0.08;64.06
74722;BME280;63470;49.826;6.740;2023-02-22T05:05:27;100050.77;;;0.10;63.95
74722;BME280;63470;49.826;6.740;2023-02-22T05:07:57;100056.55;;;0.08;63.85
74722;BME280;63470;49.826;6.740;2023-02-22T05:10:29;100053.80;;;0.05;63.85
74722;BME280;63470;49.826;6.740;2023-02-22T05:12:58;100054.12;;;0.01;63.90
74722;BME280;63470;49.826;6.740;2023-02-22T05:15:29;100053.72;;;-0.03;63.94
74722;BME280;63470;49.826;6.740;2023-02-22T05:17:59;100051.20;;;-0.03;63.99
74722;BME280;63470;49.826;6.740;2023-02-22T05:20:32;100052.23;;;-0.03;63.95
74722;BME280;63470;49.826;6.740;2023-02-22T05:23:01;100052.42;;;-0.03;63.88
74722;BME280;63470;49.826;6.740;2023-02-22T05:25:31;100048.11;;;-0.03;63.79
74722;BME280;63470;49.826;6.740;2023-02-22T05:28:07;100049.84;;;-0.02;63.73
74722;BME280;63470;49.826;6.740;2023-02-22T05:30:35;100045.64;;;-0.05;63.78
74722;BME280;63470;49.826;6.740;2023-02-22T05:33:09;100043.84;;;-0.06;63.83
74722;BME280;63470;49.826;6.740;2023-02-22T05:35:33;100041.16;;;-0.06;63.83
74722;BME280;63470;49.826;6.740;2023-02-22T05:38:05;100040.88;;;-0.08;63.84
74722;BME280;63470;49.826;6.740;2023-02-22T05:40:35;100042.28;;;-0.14;63.92
74722;BME280;63470;49.826;6.740;2023-02-22T05:43:05;100040.88;;;-0.17;64.00
74722;BME280;63470;49.826;6.740;2023-02-22T05:45:38;100040.01;;;-0.20;64.03
74722;BME280;63470;49.826;6.740;2023-02-22T05:48:06;100041.37;;;-0.21;64.08
74722;BME280;63470;49.826;6.740;2023-02-22T05:50:36;100042.64;;;-0.25;64.19
74722;BME280;63470;49.826;6.740;2023-02-22T05:53:07;100042.25;;;-0.22;64.17
74722;BME280;63470;49.826;6.740;2023-02-22T05:55:42;100038.85;;;-0.18;64.08
74722;BME280;63470;49.826;6.740;2023-02-22T05:58:08;100040.13;;;-0.15;64.01
74722;BME280;63470;49.826;6.740;2023-02-22T06:00:39;100033.64;;;-0.12;63.89
74722;BME280;63470;49.826;6.740;2023-02-22T06:03:10;100031.12;;;-0.12;63.77
74722;BME280;63470;49.826;6.740;2023-02-22T06:05:40;100026.38;;;-0.13;63.69
74722;BME280;63470;49.826;6.740;2023-02-22T06:08:10;100025.66;;;-0.17;63.71
74722;BME280;63470;49.826;6.740;2023-02-22T06:10:40;100025.38;;;-0.18;63.78
74722;BME280;63470;49.826;6.740;2023-02-22T06:13:10;100026.97;;;-0.19;63.83
74722;BME280;63470;49.826;6.740;2023-02-22T06:15:43;100024.41;;;-0.22;63.90
74722;BME280;63470;49.826;6.740;2023-02-22T06:18:11;100019.64;;;-0.21;63.96
74722;BME280;63470;49.826;6.740;2023-02-22T06:20:42;100023.05;;;-0.21;63.98
74722;BME280;63470;49.826;6.740;2023-02-22T06:23:12;100018.38;;;-0.20;64.01
74722;BME280;63470;49.826;6.740;2023-02-22T06:25:43;100016.11;;;-0.19;64.00
74722;BME280;63470;49.826;6.740;2023-02-22T06:28:14;100012.47;;;-0.20;64.02
74722;BME280;63470;49.826;6.740;2023-02-22T06:30:43;100010.39;;;-0.21;64.08
74722;BME280;63470;49.826;6.740;2023-02-22T06:33:14;100011.87;;;-0.23;64.13
74722;BME280;63470;49.826;6.740;2023-02-22T06:35:45;100013.09;;;-0.24;64.20
74722;BME280;63470;49.826;6.740;2023-02-22T06:38:24;100008.09;;;-0.25;64.20
74722;BME280;63470;49.826;6.740;2023-02-22T06:40:46;100010.03;;;-0.23;64.18
74722;BME280;63470;49.826;6.740;2023-02-22T06:43:17;100014.81;;;-0.23;64.24
74722;BME280;63470;49.826;6.740;2023-02-22T06:45:48;100016.06;;;-0.18;64.23
74722;BME280;63470;49.826;6.740;2023-02-22T06:48:18;100021.28;;;-0.13;64.21
74722;BME280;63470;49.826;6.740;2023-02-22T06:50:49;100022.89;;;-0.07;64.17
74722;BME280;63470;49.826;6.740;2023-02-22T06:53:19;100026.93;;;0.00;64.15
74722;BME280;63470;49.826;6.740;2023-02-22T06:55:52;100023.07;;;0.09;64.04
74722;BME280;63470;49.826;6.740;2023-02-22T06:58:20;100025.36;;;0.21;63.89
74722;BME280;63470;49.826;6.740;2023-02-22T07:00:55;100029.66;;;0.31;63.86
74722;BME280;63470;49.826;6.740;2023-02-22T07:03:21;100033.05;;;0.41;63.79
74722;BME280;63470;49.826;6.740;2023-02-22T07:05:51;100028.37;;;0.55;63.70
74722;BME280;63470;49.826;6.740;2023-02-22T07:08:22;100031.69;;;0.69;63.59
74722;BME280;63470;49.826;6.740;2023-02-22T07:10:53;100031.36;;;0.77;63.68
74722;BME280;63470;49.826;6.740;2023-02-22T07:13:23;100030.52;;;0.88;63.65
74722;BME280;63470;49.826;6.740;2023-02-22T07:15:53;100034.95;;;1.00;63.59
74722;BME280;63470;49.826;6.740;2023-02-22T07:18:24;100032.41;;;1.10;63.56
74722;BME280;63470;49.826;6.740;2023-02-22T07:20:55;100026.73;;;1.20;63.50
74722;BME280;63470;49.826;6.740;2023-02-22T07:23:26;100021.91;;;1.31;63.38
74722;BME280;63470;49.826;6.740;2023-02-22T07:25:59;100024.12;;;1.38;63.34
74722;BME280;63470;49.826;6.740;2023-02-22T07:28:27;100019.43;;;1.47;63.44
74722;BME280;63470;49.826;6.740;2023-02-22T07:30:58;100019.45;;;2.05;62.83
74722;BME280;63470;49.826;6.740;2023-02-22T07:33:28;100019.16;;;2.54;62.36
74722;BME280;63470;49.826;6.740;2023-02-22T07:35:58;100021.17;;;3.01;62.23
74722;BME280;63470;49.826;6.740;2023-02-22T07:38:29;100015.83;;;3.54;62.08
74722;BME280;63470;49.826;6.740;2023-02-22T07:40:59;100012.61;;;3.80;62.09
74722;BME280;63470;49.826;6.740;2023-02-22T07:43:36;100015.78;;;3.78;62.28
74722;BME280;63470;49.826;6.740;2023-02-22T07:46:06;100012.53;;;3.69;62.50
74722;BME280;63470;49.826;6.740;2023-02-22T07:48:31;100018.41;;;3.81;62.46
74722;BME280;63470;49.826;6.740;2023-02-22T07:51:01;100020.38;;;4.14;62.10
74722;BME280;63470;49.826;6.740;2023-02-22T07:53:33;100021.16;;;4.50;61.80
74722;BME280;63470;49.826;6.740;2023-02-22T07:56:04;100026.20;;;4.85;61.55
74722;BME280;63470;49.826;6.740;2023-02-22T07:58:33;100028.36;;;5.15;61.41
74722;BME280;63470;49.826;6.740;2023-02-22T08:01:04;100020.12;;;5.36;61.22
74722;BME280;63470;49.826;6.740;2023-02-22T08:03:37;100022.67;;;5.47;61.37
74722;BME280;63470;49.826;6.740;2023-02-22T08:06:09;100021.88;;;5.66;61.46
74722;BME280;63470;49.826;6.740;2023-02-22T08:08:40;100018.92;;;5.74;61.41
74722;BME280;63470;49.826;6.740;2023-02-22T08:11:05;100017.73;;;6.06;61.05
74722;BME280;63470;49.826;6.740;2023-02-22T08:13:37;100015.95;;;6.35;60.79
74722;BME280;63470;49.826;6.740;2023-02-22T08:16:06;100016.50;;;6.41;61.12
74722;BME280;63470;49.826;6.740;2023-02-22T08:18:40;100010.81;;;6.58;60.85
74722;BME280;63470;49.826;6.740;2023-02-22T08:21:07;100008.73;;;6.59;60.95
74722;BME280;63470;49.826;6.740;2023-02-22T08:23:38;100009.95;;;6.48;61.16
74722;BME280;63470;49.826;6.740;2023-02-22T08:26:10;100004.16;;;6.24;61.33
74722;BME280;63470;49.826;6.740;2023-02-22T08:28:38;100004.56;;;5.92;61.78
74722;BME280;63470;49.826;6.740;2023-02-22T08:31:13;100004.78;;;5.71;61.80
74722;BME280;63470;49.826;6.740;2023-02-22T08:33:46;100006.49;;;5.51;61.86
74722;BME280;63470;49.826;6.740;2023-02-22T08:36:09;100005.59;;;5.47;62.02
74722;BME280;63470;49.826;6.740;2023-02-22T08:38:40;100004.12;;;5.60;61.89
74722;BME280;63470;49.826;6.740;2023-02-22T08:41:11;99999.28;;;5.76;61.76
74722;BME280;63470;49.826;6.740;2023-02-22T08:43:41;99997.86;;;5.84;61.90
74722;BME280;63470;49.826;6.740;2023-02-22T08:46:12;100001.44;;;5.86;62.16
74722;BME280;63470;49.826;6.740;2023-02-22T08:48:49;100000.95;;;5.91;62.30
74722;BME280;63470;49.826;6.740;2023-02-22T08:51:12;99999.70;;;6.05;62.42
74722;BME280;63470;49.826;6.740;2023-02-22T08:53:44;100001.28;;;6.33;62.11
74722;BME280;63470;49.826;6.740;2023-02-22T08:56:18;100003.11;;;6.56;61.67
74722;BME280;63470;49.826;6.740;2023-02-22T08:58:44;99998.09;;;6.80;61.84
74722;BME280;63470;49.826;6.740;2023-02-22T09:01:14;99995.39;;;7.10;61.99
74722;BME280;63470;49.826;6.740;2023-02-22T09:03:47;99988.55;;;7.31;62.33
74722;BME280;63470;49.826;6.740;2023-02-22T09:06:17;99991.58;;;7.52;62.48
74722;BME280;63470;49.826;6.740;2023-02-22T09:08:46;99989.51;;;7.74;62.39
74722;BME280;63470;49.826;6.740;2023-02-22T09:11:21;99989.30;;;7.99;62.14
74722;BME280;63470;49.826;6.740;2023-02-22T09:13:47;99980.59;;;8.33;61.93
74722;BME280;63470;49.826;6.740;2023-02-22T09:16:18;99975.70;;;8.57;61.59
74722;BME280;63470;49.826;6.740;2023-02-22T09:18:52;99977.16;;;8.78;61.55
74722;BME280;63470;49.826;6.740;2023-02-22T09:21:24;99975.47;;;9.08;61.59
74722;BME280;63470;49.826;6.740;2023-02-22T09:23:54;99967.76;;;9.28;61.46
74722;BME280;63470;49.826;6.740;2023-02-22T09:26:25;99970.06;;;9.74;61.24
74722;BME280;63470;49.826;6.740;2023-02-22T09:28:56;99969.61;;;10.25;61.10
74722;BME280;63470;49.826;6.740;2023-02-22T09:31:28;99963.66;;;10.75;60.85
74722;BME280;63470;49.826;6.740;2023-02-22T09:33:57;99956.45;;;11.11;60.62
74722;BME280;63470;49.826;6.740;2023-02-22T09:36:28;99948.66;;;11.33;60.39
74722;BME280;63470;49.826;6.740;2023-02-22T09:38:53;99945.48;;;11.35;60.56
74722;BME280;63470;49.826;6.740;2023-02-22T09:41:28;99940.06;;;11.36;60.66
74722;BME280;63470;49.826;6.740;2023-02-22T09:46:32;99943.05;;;12.02;60.54
74722;BME280;63470;49.826;6.740;2023-02-22T09:49:19;99941.92;;;12.55;60.40
74722;BME280;63470;49.826;6.740;2023-02-22T09:51:42;99931.44;;;13.07;60.25
74722;BME280;63470;49.826;6.740;2023-02-22T09:53:59;99928.97;;;13.46;60.20
74722;BME280;63470;49.826;6.740;2023-02-22T09:56:30;99926.20;;;13.74;60.06
74722;BME280;63470;49.826;6.740;2023-02-22T09:59:02;99929.67;;;14.01;60.14
74722;BME280;63470;49.826;6.740;2023-02-22T10:01:37;99928.16;;;14.25;60.91
74722;BME280;63470;49.826;6.740;2023-02-22T10:04:16;99918.88;;;14.06;61.74
74722;BME280;63470;49.826;6.740;2023-02-22T10:06:31;99917.11;;;13.46;62.58
74722;BME280;63470;49.826;6.740;2023-02-22T10:09:01;99917.00;;;13.42;62.66
74722;BME280;63470;49.826;6.740;2023-02-22T10:11:59;99919.94;;;13.78;62.55
74722;BME280;63470;49.826;6.740;2023-02-22T10:16:55;99917.91;;;14.63;61.90
74722;BME280;63470;49.826;6.740;2023-02-22T10:19:13;99914.05;;;14.33;61.95
74722;BME280;63470;49.826;6.740;2023-02-22T10:26:42;99903.25;;;13.88;62.17
74722;BME280;63470;49.826;6.740;2023-02-22T10:31:45;99907.92;;;13.68;62.17
74722;BME280;63470;49.826;6.740;2023-02-22T10:34:14;99905.25;;;13.66;62.02
74722;BME280;63470;49.826;6.740;2023-02-22T10:36:42;99904.98;;;13.62;61.90
74722;BME280;63470;49.826;6.740;2023-02-22T10:39:26;99897.67;;;13.50;62.06
74722;BME280;63470;49.826;6.740;2023-02-22T10:41:44;99895.45;;;13.22;62.22
74722;BME280;63470;49.826;6.740;2023-02-22T10:44:06;99891.55;;;13.04;62.24
74722;BME280;63470;49.826;6.740;2023-02-22T10:46:41;99891.36;;;12.91;62.42
74722;BME280;63470;49.826;6.740;2023-02-22T10:49:14;99897.73;;;12.80;62.30
74722;BME280;63470;49.826;6.740;2023-02-22T10:51:44;99904.25;;;13.05;62.05
74722;BME280;63470;49.826;6.740;2023-02-22T10:54:24;99905.84;;;13.46;61.63
74722;BME280;63470;49.826;6.740;2023-02-22T10:56:46;99899.44;;;13.93;60.91
74722;BME280;63470;49.826;6.740;2023-02-22T10:59:27;99899.53;;;14.33;60.46
74722;BME280;63470;49.826;6.740;2023-02-22T11:01:47;99896.20;;;14.88;59.96
74722;BME280;63470;49.826;6.740;2023-02-22T11:04:16;99884.00;;;14.94;59.91
74722;BME280;63470;49.826;6.740;2023-02-22T11:06:46;99878.64;;;15.13;60.04
74722;BME280;63470;49.826;6.740;2023-02-22T11:09:17;99875.62;;;15.38;59.71
74722;BME280;63470;49.826;6.740;2023-02-22T11:11:42;99869.34;;;15.46;59.80
74722;BME280;63470;49.826;6.740;2023-02-22T11:14:15;99866.68;;;15.58;59.78
74722;BME280;63470;49.826;6.740;2023-02-22T11:16:48;99865.84;;;15.56;60.07
74722;BME280;63470;49.826;6.740;2023-02-22T11:19:26;99864.19;;;15.52;60.20
74722;BME280;63470;49.826;6.740;2023-02-22T11:21:48;99858.16;;;15.63;60.18
74722;BME280;63470;49.826;6.740;2023-02-22T11:24:17;99864.70;;;15.88;59.96
74722;BME280;63470;49.826;6.740;2023-02-22T11:26:52;99859.92;;;16.16;59.74
74722;BME280;63470;49.826;6.740;2023-02-22T11:29:31;99857.83;;;16.51;59.38
74722;BME280;63470;49.826;6.740;2023-02-22T11:31:45;99850.28;;;17.08;58.87
74722;BME280;63470;49.826;6.740;2023-02-22T11:34:25;99846.52;;;17.47;58.56
74722;BME280;63470;49.826;6.740;2023-02-22T11:36:46;99850.61;;;17.68;58.57
74722;BME280;63470;49.826;6.740;2023-02-22T11:39:28;99850.61;;;18.22;58.07
74722;BME280;63470;49.826;6.740;2023-02-22T11:41:45;99844.38;;;18.53;57.83
74722;BME280;63470;49.826;6.740;2023-02-22T11:44:27;99839.70;;;18.80;57.86
74722;BME280;63470;49.826;6.740;2023-02-22T11:46:47;99830.39;;;19.04;57.82
74722;BME280;63470;49.826;6.740;2023-02-22T11:49:22;99834.09;;;19.19;57.81
74722;BME280;63470;49.826;6.740;2023-02-22T11:52:24;99833.95;;;19.40;57.75
74722;BME280;63470;49.826;6.740;2023-02-22T11:55:07;99834.62;;;19.49;57.74
74722;BME280;63470;49.826;6.740;2023-02-22T11:56:52;99834.56;;;19.66;57.81
74722;BME280;63470;49.826;6.740;2023-02-22T12:01:52;99825.29;;;20.21;57.47
74722;BME280;63470;49.826;6.740;2023-02-22T12:12:14;99813.98;;;20.15;58.09
74722;BME280;63470;49.826;6.740;2023-02-22T12:14:51;99809.42;;;20.07;58.27
74722;BME280;63470;49.826;6.740;2023-02-22T12:17:17;99814.05;;;19.81;58.77
74722;BME280;63470;49.826;6.740;2023-02-22T12:19:34;99810.77;;;19.47;59.05
74722;BME280;63470;49.826;6.740;2023-02-22T12:22:00;99811.48;;;19.19;59.58
74722;BME280;63470;49.826;6.740;2023-02-22T12:24:27;99816.07;;;18.90;59.86
74722;BME280;63470;49.826;6.740;2023-02-22T12:27:06;99819.93;;;18.60;60.07
74722;BME280;63470;49.826;6.740;2023-02-22T12:29:35;99817.88;;;18.27;60.36
74722;BME280;63470;49.826;6.740;2023-02-22T12:32:17;99817.59;;;18.01;60.70
74722;BME280;63470;49.826;6.740;2023-02-22T12:34:35;99812.29;;;17.85;60.71
74722;BME280;63470;49.826;6.740;2023-02-22T12:37:17;99821.17;;;17.60;60.83
74722;BME280;63470;49.826;6.740;2023-02-22T12:41:59;99808.53;;;17.19;61.13
74722;BME280;63470;49.826;6.740;2023-02-22T12:44:32;99806.67;;;17.08;61.20
74722;BME280;63470;49.826;6.740;2023-02-22T12:47:00;99802.61;;;16.93;61.23
74722;BME280;63470;49.826;6.740;2023-02-22T12:49:54;99798.60;;;16.87;61.14
74722;BME280;63470;49.826;6.740;2023-02-22T12:52:13;99796.38;;;16.82;60.99
74722;BME280;63470;49.826;6.740;2023-02-22T12:54:52;99798.58;;;16.81;60.93
74722;BME280;63470;49.826;6.740;2023-02-22T12:57:02;99795.73;;;16.90;60.86
74722;BME280;63470;49.826;6.740;2023-02-22T12:59:32;99796.98;;;17.08;60.54
74722;BME280;63470;49.826;6.740;2023-02-22T13:02:07;99803.03;;;17.24;60.21
74722;BME280;63470;49.826;6.740;2023-02-22T13:04:27;99800.71;;;17.21;60.14
74722;BME280;63470;49.826;6.740;2023-02-22T13:09:49;99801.02;;;17.05;60.27
74722;BME280;63470;49.826;6.740;2023-02-22T13:12:22;99800.41;;;17.11;60.27
74722;BME280;63470;49.826;6.740;2023-02-22T13:15:01;99799.44;;;17.17;60.19
74722;BME280;63470;49.826;6.740;2023-02-22T13:19:37;99801.59;;;17.29;59.99
74722;BME280;63470;49.826;6.740;2023-02-22T13:22:25;99797.60;;;17.37;59.91
74722;BME280;63470;49.826;6.740;2023-02-22T13:24:48;99800.66;;;17.46;59.79
74722;BME280;63470;49.826;6.740;2023-02-22T13:27:15;99800.55;;;17.48;59.72
74722;BME280;63470;49.826;6.740;2023-02-22T13:29:37;99791.28;;;17.42;59.83
74722;BME280;63470;49.826;6.740;2023-02-22T13:32:07;99792.55;;;17.32;59.90
74722;BME280;63470;49.826;6.740;2023-02-22T13:35:08;99789.18;;;17.19;60.08
74722;BME280;63470;49.826;6.740;2023-02-22T13:37:40;99789.43;;;17.17;60.22
74722;BME280;63470;49.826;6.740;2023-02-22T13:42:19;99789.30;;;17.63;59.60
74722;BME280;63470;49.826;6.740;2023-02-22T13:47:23;99787.71;;;17.57;59.28
74722;BME280;63470;49.826;6.740;2023-02-22T13:52:13;99788.45;;;17.07;60.02
74722;BME280;63470;49.826;6.740;2023-02-22T13:54:45;99786.03;;;16.92;60.30
74722;BME280;63470;49.826;6.740;2023-02-22T13:57:28;99787.06;;;16.93;60.35
74722;BME280;63470;49.826;6.740;2023-02-22T14:02:33;99779.52;;;17.73;61.37
74722;BME280;63470;49.826;6.740;2023-02-22T14:04:41;99782.66;;;18.17;60.67
74722;BME280;63470;49.826;6.740;2023-02-22T14:09:48;99780.50;;;18.11;59.43
74722;BME280;63470;49.826;6.740;2023-02-22T14:12:08;99779.83;;;17.98;59.34
74722;BME280;63470;49.826;6.740;2023-02-22T14:15:07;99780.02;;;17.76;59.43